sensor_id;sensor_type;location;lat;lon;timestamp;pressure;altitude;pressure_sealevel;temperature;humidity
40850;BME280;26571;41.610;25.380;2023-05-01T00:01:50;98271.22;;;11.30;100.00
40850;BME280;26571;41.610;25.380;2023-05-01T00:04:16;98271.50;;;11.35;100.00
40850;BME280;26571;41.610;25.380;2023-05-01T00:06:41;98268.16;;;11.42;100.00
40850;BME280;26571;41.610;25.380;2023-05-01T00:09:07;98268.50;;;11.38;100.00
40850;BME280;26571;41.610;25.380;2023-05-01T00:11:34;98275.47;;;11.31;100.00
40850;BME280;26571;41.610;25.380;2023-05-01T00:14:00;98272.50;;;11.34;100.00
40850;BME280;26571;41.610;25.380;2023-05-01T00:16:25;98273.44;;;11.42;100.00
40850;BME280;26571;41.610;25.380;2023-05-01T00:18:50;98270.16;;;11.39;100.00
40850;BME280;26571;41.610;25.380;2023-05-01T00:21:16;98264.75;;;11.33;100.00
40850;BME280;26571;41.610;25.380;2023-05-01T00:23:42;98262.94;;;11.33;100.00
40850;BME280;26571;41.610;25.380;2023-05-01T00:26:07;98276.53;;;11.22;100.00
40850;BME280;26571;41.610;25.380;2023-05-01T00:28:33;98266.34;;;11.19;100.00
40850;BME280;26571;41.610;25.380;2023-05-01T00:30:58;98262.56;;;11.13;100.00
40850;BME280;26571;41.610;25.380;2023-05-01T00:33:25;98263.72;;;11.19;100.00
40850;BME280;26571;41.610;25.380;2023-05-01T00:35:50;98272.97;;;11.15;100.00
40850;BME280;26571;41.610;25.380;2023-05-01T00:38:16;98269.50;;;11.15;100.00
40850;BME280;26571;41.610;25.380;2023-05-01T00:40:43;98247.00;;;11.04;100.00
40850;BME280;26571;41.610;25.380;2023-05-01T00:43:09;98267.38;;;11.10;100.00
40850;BME280;26571;41.610;25.380;2023-05-01T00:45:36;98274.78;;;11.15;100.00
40850;BME280;26571;41.610;25.380;2023-05-01T00:48:02;98276.03;;;11.19;100.00
40850;BME280;26571;41.610;25.380;2023-05-01T00:50:27;98268.91;;;11.27;100.00
40850;BME280;26571;41.610;25.380;2023-05-01T00:52:53;98273.19;;;11.28;100.00
40850;BME280;26571;41.610;25.380;2023-05-01T00:55:20;98278.94;;;11.32;100.00
40850;BME280;26571;41.610;25.380;2023-05-01T00:57:46;98274.16;;;11.35;100.00
40850;BME280;26571;41.610;25.380;2023-05-01T01:00:12;98270.03;;;11.33;100.00
40850;BME280;26571;41.610;25.380;2023-05-01T01:02:38;98271.84;;;11.32;100.00
40850;BME280;26571;41.610;25.380;2023-05-01T01:05:04;98283.22;;;11.33;100.00
40850;BME280;26571;41.610;25.380;2023-05-01T01:07:40;98252.25;;;11.04;100.00
40850;BME280;26571;41.610;25.380;2023-05-01T01:10:12;98284.44;;;11.22;100.00
40850;BME280;26571;41.610;25.380;2023-05-01T01:21:45;98296.34;;;9.74;100.00
40850;BME280;26571;41.610;25.380;2023-05-01T01:35:23;98302.75;;;9.55;100.00
40850;BME280;26571;41.610;25.380;2023-05-01T01:37:56;98307.84;;;9.65;100.00
40850;BME280;26571;41.610;25.380;2023-05-01T01:40:25;98307.50;;;9.68;100.00
40850;BME280;26571;41.610;25.380;2023-05-01T01:42:58;98299.31;;;9.71;100.00
40850;BME280;26571;41.610;25.380;2023-05-01T01:45:35;98310.47;;;9.81;100.00
40850;BME280;26571;41.610;25.380;2023-05-01T01:48:02;98299.97;;;9.73;100.00
40850;BME280;26571;41.610;25.380;2023-05-01T01:50:28;98302.28;;;9.76;100.00
40850;BME280;26571;41.610;25.380;2023-05-01T01:52:57;98310.81;;;9.78;100.00
40850;BME280;26571;41.610;25.380;2023-05-01T01:55:26;98303.72;;;9.79;100.00
40850;BME280;26571;41.610;25.380;2023-05-01T01:57:54;98305.38;;;9.96;100.00
40850;BME280;26571;41.610;25.380;2023-05-01T02:00:20;98306.53;;;10.02;100.00
40850;BME280;26571;41.610;25.380;2023-05-01T02:02:47;98307.34;;;10.02;100.00
40850;BME280;26571;41.610;25.380;2023-05-01T02:05:15;98307.16;;;10.04;100.00
40850;BME280;26571;41.610;25.380;2023-05-01T02:07:44;98304.03;;;10.08;100.00
40850;BME280;26571;41.610;25.380;2023-05-01T02:10:12;98305.22;;;10.06;100.00
40850;BME280;26571;41.610;25.380;2023-05-01T02:12:40;98310.47;;;10.06;100.00
40850;BME280;26571;41.610;25.380;2023-05-01T02:15:08;98309.16;;;10.10;100.00
40850;BME280;26571;41.610;25.380;2023-05-01T02:17:35;98313.06;;;10.14;100.00
40850;BME280;26571;41.610;25.380;2023-05-01T02:20:03;98307.19;;;10.20;100.00
40850;BME280;26571;41.610;25.380;2023-05-01T02:22:30;98308.31;;;10.18;100.00
40850;BME280;26571;41.610;25.380;2023-05-01T02:24:57;98310.44;;;10.22;100.00
40850;BME280;26571;41.610;25.380;2023-05-01T02:27:45;98304.88;;;10.17;100.00
40850;BME280;26571;41.610;25.380;2023-05-01T02:30:11;98322.78;;;10.14;100.00
40850;BME280;26571;41.610;25.380;2023-05-01T02:32:38;98323.81;;;10.04;100.00
40850;BME280;26571;41.610;25.380;2023-05-01T02:35:03;98330.88;;;9.96;100.00
40850;BME280;26571;41.610;25.380;2023-05-01T02:37:29;98316.72;;;9.89;100.00
40850;BME280;26571;41.610;25.380;2023-05-01T02:39:55;98331.84;;;10.03;100.00
40850;BME280;26571;41.610;25.380;2023-05-01T02:42:23;98347.63;;;10.03;100.00
40850;BME280;26571;41.610;25.380;2023-05-01T02:47:50;98335.78;;;9.99;100.00
40850;BME280;26571;41.610;25.380;2023-05-01T02:50:16;98343.69;;;9.91;100.00
40850;BME280;26571;41.610;25.380;2023-05-01T02:52:42;98344.34;;;9.84;100.00
40850;BME280;26571;41.610;25.380;2023-05-01T02:55:08;98348.09;;;9.82;100.00
40850;BME280;26571;41.610;25.380;2023-05-01T02:57:34;98341.53;;;9.78;100.00
40850;BME280;26571;41.610;25.380;2023-05-01T02:59:59;98350.22;;;9.78;100.00
40850;BME280;26571;41.610;25.380;2023-05-01T03:02:25;98352.72;;;9.80;100.00
40850;BME280;26571;41.610;25.380;2023-05-01T03:04:50;98360.44;;;9.81;100.00
40850;BME280;26571;41.610;25.380;2023-05-01T03:07:16;98367.34;;;9.82;100.00
40850;BME280;26571;41.610;25.380;2023-05-01T03:09:41;98362.56;;;9.86;100.00
40850;BME280;26571;41.610;25.380;2023-05-01T03:12:07;98369.16;;;9.90;100.00
40850;BME280;26571;41.610;25.380;2023-05-01T03:14:32;98364.22;;;9.95;100.00
40850;BME280;26571;41.610;25.380;2023-05-01T03:16:58;98370.13;;;9.97;100.00
40850;BME280;26571;41.610;25.380;2023-05-01T03:19:23;98371.63;;;9.92;100.00
40850;BME280;26571;41.610;25.380;2023-05-01T03:21:49;98376.53;;;9.87;100.00
40850;BME280;26571;41.610;25.380;2023-05-01T03:24:14;98381.78;;;9.78;100.00
40850;BME280;26571;41.610;25.380;2023-05-01T03:26:40;98377.19;;;9.80;100.00
40850;BME280;26571;41.610;25.380;2023-05-01T03:29:06;98377.34;;;9.79;100.00
40850;BME280;26571;41.610;25.380;2023-05-01T03:31:31;98371.91;;;9.72;100.00
40850;BME280;26571;41.610;25.380;2023-05-01T03:33:57;98377.50;;;9.69;100.00
40850;BME280;26571;41.610;25.380;2023-05-01T03:36:23;98368.28;;;9.57;100.00
40850;BME280;26571;41.610;25.380;2023-05-01T03:38:49;98379.81;;;9.72;100.00
40850;BME280;26571;41.610;25.380;2023-05-01T03:41:14;98386.06;;;9.79;100.00
40850;BME280;26571;41.610;25.380;2023-05-01T03:43:40;98393.31;;;9.86;100.00
40850;BME280;26571;41.610;25.380;2023-05-01T03:46:05;98395.47;;;9.90;100.00
40850;BME280;26571;41.610;25.380;2023-05-01T03:48:30;98401.03;;;9.87;100.00
40850;BME280;26571;41.610;25.380;2023-05-01T03:50:56;98399.91;;;9.90;100.00
40850;BME280;26571;41.610;25.380;2023-05-01T03:53:22;98393.16;;;9.95;100.00
40850;BME280;26571;41.610;25.380;2023-05-01T03:55:48;98410.56;;;10.13;100.00
40850;BME280;26571;41.610;25.380;2023-05-01T03:58:13;98409.09;;;10.18;100.00
40850;BME280;26571;41.610;25.380;2023-05-01T04:00:39;98418.03;;;10.25;100.00
40850;BME280;26571;41.610;25.380;2023-05-01T04:03:06;98418.00;;;10.33;100.00
40850;BME280;26571;41.610;25.380;2023-05-01T04:05:31;98415.56;;;10.40;100.00
40850;BME280;26571;41.610;25.380;2023-05-01T04:07:57;98429.84;;;10.62;100.00
40850;BME280;26571;41.610;25.380;2023-05-01T04:10:22;98405.50;;;10.52;100.00
40850;BME280;26571;41.610;25.380;2023-05-01T04:12:48;98433.47;;;10.69;100.00
40850;BME280;26571;41.610;25.380;2023-05-01T04:15:13;98434.28;;;10.70;100.00
40850;BME280;26571;41.610;25.380;2023-05-01T04:17:39;98432.16;;;10.65;100.00
40850;BME280;26571;41.610;25.380;2023-05-01T04:20:05;98424.22;;;10.73;100.00
40850;BME280;26571;41.610;25.380;2023-05-01T04:22:31;98430.47;;;10.72;100.00
40850;BME280;26571;41.610;25.380;2023-05-01T04:24:57;98443.63;;;10.72;100.00
40850;BME280;26571;41.610;25.380;2023-05-01T04:27:22;98436.41;;;10.74;100.00
40850;BME280;26571;41.610;25.380;2023-05-01T04:29:49;98438.88;;;10.76;100.00
40850;BME280;26571;41.610;25.380;2023-05-01T04:32:14;98444.28;;;10.82;100.00
40850;BME280;26571;41.610;25.380;2023-05-01T04:34:40;98445.28;;;10.73;100.00
40850;BME280;26571;41.610;25.380;2023-05-01T04:37:06;98447.25;;;10.79;100.00
40850;BME280;26571;41.610;25.380;2023-05-01T04:39:33;98410.41;;;10.63;100.00
40850;BME280;26571;41.610;25.380;2023-05-01T04:42:00;98448.91;;;10.80;100.00
40850;BME280;26571;41.610;25.380;2023-05-01T04:44:26;98453.66;;;10.69;100.00
40850;BME280;26571;41.610;25.380;2023-05-01T04:46:51;98435.94;;;10.54;100.00
40850;BME280;26571;41.610;25.380;2023-05-01T04:49:17;98455.19;;;10.55;100.00
40850;BME280;26571;41.610;25.380;2023-05-01T04:51:42;98458.63;;;10.64;100.00
40850;BME280;26571;41.610;25.380;2023-05-01T04:54:07;98463.38;;;10.76;100.00
40850;BME280;26571;41.610;25.380;2023-05-01T04:56:33;98460.44;;;10.55;100.00
40850;BME280;26571;41.610;25.380;2023-05-01T04:58:58;98465.06;;;10.37;100.00
40850;BME280;26571;41.610;25.380;2023-05-01T05:01:23;98464.22;;;10.36;100.00
40850;BME280;26571;41.610;25.380;2023-05-01T05:03:49;98464.88;;;10.46;100.00
40850;BME280;26571;41.610;25.380;2023-05-01T05:06:14;98453.19;;;10.57;100.00
40850;BME280;26571;41.610;25.380;2023-05-01T05:08:40;98457.31;;;10.51;100.00
40850;BME280;26571;41.610;25.380;2023-05-01T05:11:05;98463.06;;;10.63;100.00
40850;BME280;26571;41.610;25.380;2023-05-01T05:13:31;98466.34;;;10.90;100.00
40850;BME280;26571;41.610;25.380;2023-05-01T05:15:56;98466.94;;;11.08;100.00
40850;BME280;26571;41.610;25.380;2023-05-01T05:18:22;98472.38;;;11.15;100.00
40850;BME280;26571;41.610;25.380;2023-05-01T05:20:47;98474.50;;;11.19;100.00
40850;BME280;26571;41.610;25.380;2023-05-01T05:23:13;98479.03;;;11.33;100.00
40850;BME280;26571;41.610;25.380;2023-05-01T05:25:38;98454.34;;;11.34;100.00
40850;BME280;26571;41.610;25.380;2023-05-01T05:28:03;98480.44;;;11.60;100.00
40850;BME280;26571;41.610;25.380;2023-05-01T05:30:29;98475.28;;;11.67;100.00
40850;BME280;26571;41.610;25.380;2023-05-01T05:32:54;98484.47;;;11.79;100.00
40850;BME280;26571;41.610;25.380;2023-05-01T05:35:20;98478.38;;;11.79;100.00
40850;BME280;26571;41.610;25.380;2023-05-01T05:37:45;98466.66;;;11.81;100.00
40850;BME280;26571;41.610;25.380;2023-05-01T05:40:11;98485.28;;;12.19;100.00
40850;BME280;26571;41.610;25.380;2023-05-01T05:42:37;98490.72;;;12.40;100.00
40850;BME280;26571;41.610;25.380;2023-05-01T05:45:03;98500.22;;;12.50;100.00
40850;BME280;26571;41.610;25.380;2023-05-01T05:47:28;98499.94;;;12.45;100.00
40850;BME280;26571;41.610;25.380;2023-05-01T05:49:53;98498.41;;;12.50;100.00
40850;BME280;26571;41.610;25.380;2023-05-01T05:52:22;98503.44;;;12.60;100.00
40850;BME280;26571;41.610;25.380;2023-05-01T05:54:47;98510.75;;;12.73;100.00
40850;BME280;26571;41.610;25.380;2023-05-01T05:57:13;98509.59;;;12.75;100.00
40850;BME280;26571;41.610;25.380;2023-05-01T05:59:39;98504.88;;;12.85;100.00
40850;BME280;26571;41.610;25.380;2023-05-01T06:02:04;98507.75;;;12.99;100.00
40850;BME280;26571;41.610;25.380;2023-05-01T06:04:29;98509.00;;;13.03;100.00
40850;BME280;26571;41.610;25.380;2023-05-01T06:06:55;98480.09;;;12.86;100.00
40850;BME280;26571;41.610;25.380;2023-05-01T06:09:21;98507.97;;;13.41;100.00
40850;BME280;26571;41.610;25.380;2023-05-01T06:11:47;98513.38;;;13.63;100.00
40850;BME280;26571;41.610;25.380;2023-05-01T06:14:12;98519.75;;;13.54;100.00
40850;BME280;26571;41.610;25.380;2023-05-01T06:16:38;98522.56;;;13.67;100.00
40850;BME280;26571;41.610;25.380;2023-05-01T06:19:04;98517.22;;;13.96;100.00
40850;BME280;26571;41.610;25.380;2023-05-01T06:21:29;98514.84;;;14.38;100.00
40850;BME280;26571;41.610;25.380;2023-05-01T06:23:56;98511.28;;;14.67;100.00
40850;BME280;26571;41.610;25.380;2023-05-01T06:26:22;98520.50;;;14.99;100.00
40850;BME280;26571;41.610;25.380;2023-05-01T06:28:47;98517.25;;;14.97;100.00
40850;BME280;26571;41.610;25.380;2023-05-01T06:31:13;98523.25;;;15.12;100.00
40850;BME280;26571;41.610;25.380;2023-05-01T06:33:38;98523.41;;;15.32;100.00
40850;BME280;26571;41.610;25.380;2023-05-01T06:36:04;98533.78;;;15.62;98.06
40850;BME280;26571;41.610;25.380;2023-05-01T06:38:29;98526.56;;;15.90;98.64
40850;BME280;26571;41.610;25.380;2023-05-01T06:40:57;98536.13;;;16.39;96.02
40850;BME280;26571;41.610;25.380;2023-05-01T06:43:22;98524.38;;;17.08;93.26
40850;BME280;26571;41.610;25.380;2023-05-01T06:45:52;98537.75;;;17.86;90.51
40850;BME280;26571;41.610;25.380;2023-05-01T06:48:17;98531.75;;;18.42;85.76
40850;BME280;26571;41.610;25.380;2023-05-01T06:50:43;98540.88;;;18.91;83.51
40850;BME280;26571;41.610;25.380;2023-05-01T06:53:08;98535.16;;;18.88;72.21
40850;BME280;26571;41.610;25.380;2023-05-01T06:55:33;98539.16;;;18.40;71.66
40850;BME280;26571;41.610;25.380;2023-05-01T06:57:59;98542.38;;;18.11;73.14
40850;BME280;26571;41.610;25.380;2023-05-01T07:00:24;98541.34;;;18.12;72.59
40850;BME280;26571;41.610;25.380;2023-05-01T07:02:50;98544.41;;;18.08;72.44
40850;BME280;26571;41.610;25.380;2023-05-01T07:05:15;98520.53;;;17.95;74.44
40850;BME280;26571;41.610;25.380;2023-05-01T07:07:41;98540.88;;;18.21;74.17
40850;BME280;26571;41.610;25.380;2023-05-01T07:10:06;98538.91;;;18.03;75.06
40850;BME280;26571;41.610;25.380;2023-05-01T07:12:32;98538.69;;;18.05;76.92
40850;BME280;26571;41.610;25.380;2023-05-01T07:14:57;98536.72;;;18.32;75.86
40850;BME280;26571;41.610;25.380;2023-05-01T07:17:23;98546.00;;;18.23;74.76
40850;BME280;26571;41.610;25.380;2023-05-01T07:19:48;98542.25;;;18.37;72.38
40850;BME280;26571;41.610;25.380;2023-05-01T07:22:14;98504.22;;;18.48;72.42
40850;BME280;26571;41.610;25.380;2023-05-01T07:24:40;98543.81;;;19.33;71.00
40850;BME280;26571;41.610;25.380;2023-05-01T07:27:05;98550.16;;;19.57;69.94
40850;BME280;26571;41.610;25.380;2023-05-01T07:29:30;98551.81;;;19.95;70.15
40850;BME280;26571;41.610;25.380;2023-05-01T07:31:56;98551.13;;;20.18;66.97
40850;BME280;26571;41.610;25.380;2023-05-01T07:34:21;98548.19;;;20.37;64.81
40850;BME280;26571;41.610;25.380;2023-05-01T07:36:46;98551.38;;;20.46;65.14
40850;BME280;26571;41.610;25.380;2023-05-01T07:39:12;98549.59;;;20.40;64.62
40850;BME280;26571;41.610;25.380;2023-05-01T07:41:38;98552.13;;;20.35;64.10
40850;BME280;26571;41.610;25.380;2023-05-01T07:44:04;98537.19;;;20.16;65.06
40850;BME280;26571;41.610;25.380;2023-05-01T07:46:29;98547.00;;;20.52;62.78
40850;BME280;26571;41.610;25.380;2023-05-01T07:48:55;98535.81;;;20.85;59.56
40850;BME280;26571;41.610;25.380;2023-05-01T07:51:20;98542.34;;;20.89;56.63
40850;BME280;26571;41.610;25.380;2023-05-01T07:53:46;98538.63;;;21.13;54.97
40850;BME280;26571;41.610;25.380;2023-05-01T07:56:12;98543.19;;;21.25;53.34
40850;BME280;26571;41.610;25.380;2023-05-01T07:58:37;98501.63;;;21.10;54.73
40850;BME280;26571;41.610;25.380;2023-05-01T08:01:05;98546.56;;;21.55;54.58
40850;BME280;26571;41.610;25.380;2023-05-01T08:03:30;98545.13;;;21.88;53.76
40850;BME280;26571;41.610;25.380;2023-05-01T08:05:56;98542.13;;;22.25;52.38
40850;BME280;26571;41.610;25.380;2023-05-01T08:08:22;98544.00;;;22.53;51.44
40850;BME280;26571;41.610;25.380;2023-05-01T08:10:48;98500.38;;;22.29;52.20
40850;BME280;26571;41.610;25.380;2023-05-01T08:13:14;98539.59;;;22.92;49.76
40850;BME280;26571;41.610;25.380;2023-05-01T08:15:40;98527.56;;;23.11;48.33
40850;BME280;26571;41.610;25.380;2023-05-01T08:18:07;98533.09;;;23.05;47.10
40850;BME280;26571;41.610;25.380;2023-05-01T08:20:34;98536.84;;;23.04;47.66
40850;BME280;26571;41.610;25.380;2023-05-01T08:23:00;98528.84;;;23.26;49.56
40850;BME280;26571;41.610;25.380;2023-05-01T08:25:25;98532.97;;;23.50;49.11
40850;BME280;26571;41.610;25.380;2023-05-01T08:27:51;98523.84;;;23.51;48.17
40850;BME280;26571;41.610;25.380;2023-05-01T08:30:16;98526.34;;;23.75;50.63
40850;BME280;26571;41.610;25.380;2023-05-01T08:32:41;98516.25;;;23.87;47.15
40850;BME280;26571;41.610;25.380;2023-05-01T08:35:07;98526.81;;;23.71;46.75
40850;BME280;26571;41.610;25.380;2023-05-01T08:37:32;98531.66;;;23.69;44.94
40850;BME280;26571;41.610;25.380;2023-05-01T08:39:58;98525.53;;;23.74;44.42
40850;BME280;26571;41.610;25.380;2023-05-01T08:42:24;98524.19;;;23.77;44.00
40850;BME280;26571;41.610;25.380;2023-05-01T08:44:50;98526.09;;;23.37;44.43
40850;BME280;26571;41.610;25.380;2023-05-01T08:47:17;98494.19;;;23.07;44.28
40850;BME280;26571;41.610;25.380;2023-05-01T08:49:44;98520.88;;;22.97;44.71
40850;BME280;26571;41.610;25.380;2023-05-01T08:52:11;98520.25;;;22.90;44.25
40850;BME280;26571;41.610;25.380;2023-05-01T08:54:44;98529.97;;;22.79;44.23
40850;BME280;26571;41.610;25.380;2023-05-01T08:57:11;98522.63;;;22.58;43.52
40850;BME280;26571;41.610;25.380;2023-05-01T08:59:38;98536.34;;;22.04;44.52
40850;BME280;26571;41.610;25.380;2023-05-01T09:02:06;98517.59;;;22.04;44.25
40850;BME280;26571;41.610;25.380;2023-05-01T09:04:34;98518.28;;;22.11;44.55
40850;BME280;26571;41.610;25.380;2023-05-01T09:07:01;98516.63;;;22.10;45.43
40850;BME280;26571;41.610;25.380;2023-05-01T09:09:27;98519.47;;;22.04;45.71
40850;BME280;26571;41.610;25.380;2023-05-01T09:12:17;98508.75;;;22.32;45.16
40850;BME280;26571;41.610;25.380;2023-05-01T09:14:46;98503.19;;;22.22;43.26
40850;BME280;26571;41.610;25.380;2023-05-01T09:17:12;98484.66;;;22.21;43.54
40850;BME280;26571;41.610;25.380;2023-05-01T09:19:38;98501.22;;;22.46;43.14
40850;BME280;26571;41.610;25.380;2023-05-01T09:22:05;98508.63;;;22.39;42.88
40850;BME280;26571;41.610;25.380;2023-05-01T09:24:30;98279.69;;;21.09;42.69
40850;BME280;26571;41.610;25.380;2023-05-01T09:26:55;98503.59;;;22.59;43.00
40850;BME280;26571;41.610;25.380;2023-05-01T09:29:40;98508.34;;;22.69;43.00
40850;BME280;26571;41.610;25.380;2023-05-01T09:32:16;98501.34;;;22.85;41.82
40850;BME280;26571;41.610;25.380;2023-05-01T09:34:42;98500.97;;;22.93;43.46
40850;BME280;26571;41.610;25.380;2023-05-01T09:37:28;98503.69;;;22.81;43.25
40850;BME280;26571;41.610;25.380;2023-05-01T09:40:01;98518.19;;;22.97;42.04
40850;BME280;26571;41.610;25.380;2023-05-01T09:42:27;98503.50;;;23.00;42.10
40850;BME280;26571;41.610;25.380;2023-05-01T09:44:52;98506.41;;;23.15;39.60
40850;BME280;26571;41.610;25.380;2023-05-01T09:47:21;98499.47;;;23.02;38.87
40850;BME280;26571;41.610;25.380;2023-05-01T09:49:47;98502.25;;;23.07;39.79
40850;BME280;26571;41.610;25.380;2023-05-01T09:52:13;98502.84;;;22.92;39.31
40850;BME280;26571;41.610;25.380;2023-05-01T09:54:39;98462.47;;;22.70;39.29
40850;BME280;26571;41.610;25.380;2023-05-01T09:57:05;98494.88;;;22.98;38.49
40850;BME280;26571;41.610;25.380;2023-05-01T09:59:31;98472.56;;;22.63;38.35
40850;BME280;26571;41.610;25.380;2023-05-01T10:01:59;98492.91;;;22.93;39.32
40850;BME280;26571;41.610;25.380;2023-05-01T10:04:31;98499.47;;;23.02;38.33
40850;BME280;26571;41.610;25.380;2023-05-01T10:07:03;98483.78;;;23.28;37.98
40850;BME280;26571;41.610;25.380;2023-05-01T10:09:35;98490.47;;;23.64;37.91
40850;BME280;26571;41.610;25.380;2023-05-01T10:12:00;98491.56;;;23.90;34.70
40850;BME280;26571;41.610;25.380;2023-05-01T10:14:26;98487.22;;;23.84;35.56
40850;BME280;26571;41.610;25.380;2023-05-01T10:16:53;98487.94;;;23.57;36.79
40850;BME280;26571;41.610;25.380;2023-05-01T10:19:21;98486.81;;;23.53;35.60
40850;BME280;26571;41.610;25.380;2023-05-01T10:21:46;98485.28;;;23.40;37.83
40850;BME280;26571;41.610;25.380;2023-05-01T10:24:12;98485.53;;;23.39;37.49
40850;BME280;26571;41.610;25.380;2023-05-01T10:26:40;98473.50;;;23.25;35.93
40850;BME280;26571;41.610;25.380;2023-05-01T10:29:07;98472.88;;;22.84;36.73
40850;BME280;26571;41.610;25.380;2023-05-01T10:31:33;98478.34;;;22.89;37.61
40850;BME280;26571;41.610;25.380;2023-05-01T10:33:59;98472.63;;;22.85;39.06
40850;BME280;26571;41.610;25.380;2023-05-01T10:36:30;98469.13;;;23.02;38.47
40850;BME280;26571;41.610;25.380;2023-05-01T10:38:57;98474.50;;;22.85;38.67
40850;BME280;26571;41.610;25.380;2023-05-01T10:44:26;98464.56;;;23.02;36.71
40850;BME280;26571;41.610;25.380;2023-05-01T10:46:52;98478.56;;;23.21;36.13
40850;BME280;26571;41.610;25.380;2023-05-01T10:49:18;98477.13;;;23.13;35.53
40850;BME280;26571;41.610;25.380;2023-05-01T10:54:23;98440.66;;;22.67;36.57
40850;BME280;26571;41.610;25.380;2023-05-01T10:56:49;98470.44;;;23.16;35.74
40850;BME280;26571;41.610;25.380;2023-05-01T10:59:15;98479.06;;;23.18;36.24
40850;BME280;26571;41.610;25.380;2023-05-01T11:01:40;98469.59;;;22.82;36.73
40850;BME280;26571;41.610;25.380;2023-05-01T11:12:04;98481.00;;;22.72;34.03
40850;BME280;26571;41.610;25.380;2023-05-01T11:20:09;98478.69;;;23.31;38.98
40850;BME280;26571;41.610;25.380;2023-05-01T11:22:37;98484.31;;;23.30;36.57
40850;BME280;26571;41.610;25.380;2023-05-01T11:25:19;98495.03;;;22.91;39.37
40850;BME280;26571;41.610;25.380;2023-05-01T11:27:56;98457.38;;;22.24;39.65
40850;BME280;26571;41.610;25.380;2023-05-01T11:30:21;98494.97;;;22.12;39.55
40850;BME280;26571;41.610;25.380;2023-05-01T11:32:48;98478.00;;;21.83;38.18
40850;BME280;26571;41.610;25.380;2023-05-01T11:35:22;98456.69;;;21.36;40.69
40850;BME280;26571;41.610;25.380;2023-05-01T11:37:49;98492.41;;;21.65;40.52
40850;BME280;26571;41.610;25.380;2023-05-01T11:40:22;98492.66;;;21.92;39.68
40850;BME280;26571;41.610;25.380;2023-05-01T11:42:49;98496.38;;;22.14;38.44
40850;BME280;26571;41.610;25.380;2023-05-01T11:45:17;98486.22;;;22.05;40.79
40850;BME280;26571;41.610;25.380;2023-05-01T11:47:42;98490.75;;;22.16;40.38
40850;BME280;26571;41.610;25.380;2023-05-01T11:50:08;98476.25;;;22.29;40.94
40850;BME280;26571;41.610;25.380;2023-05-01T11:52:45;98474.81;;;22.38;38.99
40850;BME280;26571;41.610;25.380;2023-05-01T11:55:13;98477.16;;;22.34;39.34
40850;BME280;26571;41.610;25.380;2023-05-01T11:57:46;98480.81;;;22.45;38.58
40850;BME280;26571;41.610;25.380;2023-05-01T12:00:14;98469.13;;;22.51;37.06
40850;BME280;26571;41.610;25.380;2023-05-01T12:02:54;98474.59;;;22.90;38.14
40850;BME280;26571;41.610;25.380;2023-05-01T12:05:22;98467.03;;;23.04;36.26
40850;BME280;26571;41.610;25.380;2023-05-01T12:07:47;98460.41;;;23.28;35.67
40850;BME280;26571;41.610;25.380;2023-05-01T12:10:13;98466.25;;;23.25;33.75
40850;BME280;26571;41.610;25.380;2023-05-01T12:12:39;98463.25;;;23.21;34.97
40850;BME280;26571;41.610;25.380;2023-05-01T12:15:05;98463.75;;;23.18;34.54
40850;BME280;26571;41.610;25.380;2023-05-01T12:17:31;98455.13;;;23.16;33.79
40850;BME280;26571;41.610;25.380;2023-05-01T12:19:57;98467.84;;;23.04;36.53
40850;BME280;26571;41.610;25.380;2023-05-01T12:22:23;98463.47;;;22.98;37.59
40850;BME280;26571;41.610;25.380;2023-05-01T12:24:52;98465.66;;;23.01;37.14
40850;BME280;26571;41.610;25.380;2023-05-01T12:27:18;98460.00;;;22.86;35.92
40850;BME280;26571;41.610;25.380;2023-05-01T12:29:44;98465.16;;;22.54;36.59
40850;BME280;26571;41.610;25.380;2023-05-01T12:32:11;98482.81;;;22.09;38.00
40850;BME280;26571;41.610;25.380;2023-05-01T12:34:38;98453.72;;;22.01;37.57
40850;BME280;26571;41.610;25.380;2023-05-01T12:37:04;98455.56;;;22.12;39.62
40850;BME280;26571;41.610;25.380;2023-05-01T12:39:39;98454.78;;;22.29;37.39
40850;BME280;26571;41.610;25.380;2023-05-01T12:42:13;98457.75;;;22.61;36.32
40850;BME280;26571;41.610;25.380;2023-05-01T12:44:39;98453.69;;;22.75;37.11
40850;BME280;26571;41.610;25.380;2023-05-01T12:47:06;98456.28;;;22.70;36.95
40850;BME280;26571;41.610;25.380;2023-05-01T12:49:32;98459.34;;;22.62;39.13
40850;BME280;26571;41.610;25.380;2023-05-01T12:52:00;98447.81;;;22.44;39.08
40850;BME280;26571;41.610;25.380;2023-05-01T12:54:29;98450.41;;;22.56;40.25
40850;BME280;26571;41.610;25.380;2023-05-01T12:57:11;98449.59;;;22.56;39.83
40850;BME280;26571;41.610;25.380;2023-05-01T12:59:40;98451.88;;;22.47;40.71
40850;BME280;26571;41.610;25.380;2023-05-01T13:02:09;98447.00;;;22.44;39.41
40850;BME280;26571;41.610;25.380;2023-05-01T13:04:37;98446.34;;;22.08;39.71
40850;BME280;26571;41.610;25.380;2023-05-01T13:07:13;98452.88;;;21.84;39.84
40850;BME280;26571;41.610;25.380;2023-05-01T13:09:52;98459.66;;;21.63;39.14
40850;BME280;26571;41.610;25.380;2023-05-01T13:12:18;98435.69;;;21.56;41.22
40850;BME280;26571;41.610;25.380;2023-05-01T13:14:44;98452.50;;;21.80;39.99
40850;BME280;26571;41.610;25.380;2023-05-01T13:17:10;98440.06;;;21.74;39.88
40850;BME280;26571;41.610;25.380;2023-05-01T13:19:37;98449.47;;;21.88;40.39
40850;BME280;26571;41.610;25.380;2023-05-01T13:22:04;98449.66;;;21.99;39.36
40850;BME280;26571;41.610;25.380;2023-05-01T13:27:01;98422.94;;;21.75;40.39
40850;BME280;26571;41.610;25.380;2023-05-01T13:29:27;98414.09;;;21.75;39.13